createdAt,value
2023-03-06T00:01:07.316Z,98972.28
2023-03-06T00:04:11.080Z,98978.56
2023-03-06T00:07:16.167Z,98971.84
2023-03-06T00:10:21.714Z,98982.78
2023-03-06T00:13:30.266Z,98987.88
2023-03-06T00:16:34.112Z,98980.19
2023-03-06T00:19:37.915Z,98978.97
2023-03-06T00:22:43.687Z,98976.28
2023-03-06T00:25:47.904Z,98988.00
2023-03-06T00:28:51.573Z,98983.91
2023-03-06T00:31:55.265Z,98993.47
2023-03-06T00:34:58.954Z,98989.38
2023-03-06T00:38:04.087Z,98997.16
2023-03-06T00:41:11.098Z,99000.91
2023-03-06T00:44:14.867Z,98997.75
2023-03-06T00:47:18.428Z,99008.81
2023-03-06T00:50:22.139Z,99008.66
2023-03-06T00:53:27.448Z,99010.84
2023-03-06T00:56:31.319Z,99010.84
2023-03-06T00:59:35.453Z,99011.53
2023-03-06T01:02:39.218Z,99006.63
2023-03-06T01:05:42.897Z,99012.63
2023-03-06T01:08:47.989Z,99010.72
2023-03-06T01:11:51.722Z,98999.22
2023-03-06T01:14:55.389Z,99009.22
2023-03-06T01:17:59.038Z,99001.44
2023-03-06T01:21:02.619Z,99005.00
2023-03-06T01:24:08.216Z,99001.00
2023-03-06T01:27:11.825Z,99009.91
2023-03-06T01:30:15.746Z,99008.41
2023-03-06T01:33:19.509Z,99008.53
2023-03-06T01:36:23.181Z,99009.63
2023-03-06T01:39:28.947Z,99015.22
2023-03-06T01:42:32.778Z,99006.91
2023-03-06T01:46:13.404Z,99011.28
2023-03-06T01:49:21.957Z,99010.72
2023-03-06T01:52:30.467Z,99014.13
2023-03-06T01:55:38.096Z,99017.41
2023-03-06T01:58:43.912Z,99030.50
2023-03-06T02:01:48.626Z,99029.97
2023-03-06T02:04:52.643Z,99029.81
2023-03-06T02:07:56.728Z,99021.06
2023-03-06T02:11:08.030Z,99032.03
2023-03-06T02:14:14.210Z,99034.78
2023-03-06T02:17:21.171Z,99037.63
2023-03-06T02:20:30.687Z,99042.72
2023-03-06T02:23:42.678Z,99038.88
2023-03-06T02:26:49.200Z,99047.06
2023-03-06T02:29:53.320Z,99043.25
2023-03-06T02:32:57.233Z,99052.25
2023-03-06T02:36:03.070Z,99037.78
2023-03-06T02:39:07.507Z,99049.09
2023-03-06T02:42:19.527Z,99045.03
2023-03-06T02:45:27.725Z,99048.53
2023-03-06T02:48:31.481Z,99053.47
2023-03-06T02:51:36.050Z,99056.88
2023-03-06T02:54:39.748Z,99051.31
2023-03-06T02:57:45.803Z,99052.53
2023-03-06T03:00:51.485Z,99054.84
2023-03-06T03:03:56.677Z,99047.88
2023-03-06T03:07:00.805Z,99055.41
2023-03-06T03:10:05.519Z,99056.09
2023-03-06T03:13:11.041Z,99052.25
2023-03-06T03:16:16.777Z,99053.06
2023-03-06T03:19:20.389Z,99056.09
2023-03-06T03:22:24.347Z,99052.69
2023-03-06T03:25:28.159Z,99047.31
2023-03-06T03:28:35.764Z,99050.59
2023-03-06T03:31:39.713Z,99054.97
2023-03-06T03:34:43.439Z,99051.97
2023-03-06T03:37:47.098Z,99061.13
2023-03-06T03:40:51.370Z,99066.97
2023-03-06T03:43:56.436Z,99061.84
2023-03-06T03:47:00.708Z,99053.91
2023-03-06T03:50:04.942Z,99054.81
2023-03-06T03:53:08.846Z,99055.53
2023-03-06T03:56:13.344Z,99061.72
2023-03-06T03:59:27.471Z,99059.63
2023-03-06T04:02:50.211Z,99059.75
2023-03-06T04:06:02.940Z,99061.94
2023-03-06T04:09:06.944Z,99064.66
2023-03-06T04:12:12.031Z,99065.19
2023-03-06T04:15:17.091Z,99069.41
2023-03-06T04:18:24.211Z,99068.75
2023-03-06T04:21:30.389Z,99078.94
2023-03-06T04:24:34.223Z,99077.53
2023-03-06T04:27:38.113Z,99075.88
2023-03-06T04:30:44.385Z,99083.63
2023-03-06T04:33:48.076Z,99083.75
2023-03-06T04:36:52.442Z,99090.47
2023-03-06T04:39:56.175Z,99091.13
2023-03-06T04:43:01.602Z,99096.25
2023-03-06T04:46:07.036Z,99095.50
2023-03-06T04:49:10.684Z,99104.03
2023-03-06T04:52:14.251Z,99100.75
2023-03-06T04:55:18.478Z,99100.75
2023-03-06T04:58:22.251Z,99113.66
2023-03-06T05:01:27.436Z,99110.84
2023-03-06T05:04:31.101Z,99107.19
2023-03-06T05:07:34.654Z,99115.25
2023-03-06T05:10:38.478Z,99121.19
2023-03-06T05:13:42.124Z,99122.09
2023-03-06T05:16:47.465Z,99121.84
2023-03-06T05:19:51.066Z,99123.41
2023-03-06T05:22:54.733Z,99126.75
2023-03-06T05:25:58.686Z,99128.59
2023-03-06T05:29:02.489Z,99138.66
2023-03-06T05:32:08.246Z,99140.25
2023-03-06T05:35:18.998Z,99143.66
2023-03-06T05:38:23.327Z,99146.84
2023-03-06T05:41:26.974Z,99152.03
2023-03-06T05:44:33.581Z,99155.47
2023-03-06T05:47:38.722Z,99165.28
2023-03-06T05:50:42.435Z,99162.16
2023-03-06T05:53:46.199Z,99169.19
2023-03-06T05:56:50.560Z,99176.88
2023-03-06T05:59:54.468Z,99178.78
2023-03-06T06:03:02.526Z,99176.28
2023-03-06T06:06:07.131Z,99185.03
2023-03-06T06:09:13.773Z,99186.28
2023-03-06T06:12:17.672Z,99186.47
2023-03-06T06:15:21.450Z,99192.56
2023-03-06T06:18:26.724Z,99180.47
2023-03-06T06:21:30.581Z,99191.19
2023-03-06T06:24:34.457Z,99185.84
2023-03-06T06:27:38.215Z,99191.78
2023-03-06T06:30:42.009Z,99196.09
2023-03-06T06:33:47.414Z,99195.22
2023-03-06T06:36:53.511Z,99196.28
2023-03-06T06:39:57.615Z,99196.00
2023-03-06T06:43:01.480Z,99205.16
2023-03-06T06:46:36.463Z,99199.94
2023-03-06T06:49:31.266Z,99204.63
2023-03-06T06:52:35.600Z,99200.06
2023-03-06T06:55:39.423Z,99207.84
2023-03-06T06:58:43.138Z,99207.88
2023-03-06T07:01:47.066Z,99206.75
2023-03-06T07:05:04.265Z,99202.00
2023-03-06T07:08:09.278Z,99204.88
2023-03-06T07:11:15.198Z,99206.94
2023-03-06T07:14:19.211Z,99206.88
2023-03-06T07:17:25.534Z,99217.16
2023-03-06T07:20:32.199Z,99214.53
2023-03-06T07:23:36.261Z,99216.34
2023-03-06T07:26:40.112Z,99226.47
2023-03-06T07:29:45.047Z,99222.53
2023-03-06T07:32:48.920Z,99233.91
2023-03-06T07:35:54.387Z,99235.72
2023-03-06T07:38:58.201Z,99238.75
2023-03-06T07:42:02.220Z,99240.56
2023-03-06T07:45:08.164Z,99229.53
2023-03-06T07:48:12.030Z,99228.34
2023-03-06T07:51:19.022Z,99235.25
2023-03-06T07:54:22.968Z,99237.53
2023-03-06T07:57:26.955Z,99243.53
2023-03-06T08:00:30.848Z,99244.47
2023-03-06T08:03:35.183Z,99249.03
2023-03-06T08:06:40.501Z,99236.34
2023-03-06T08:09:44.313Z,99239.75
2023-03-06T08:12:48.224Z,99238.91
2023-03-06T08:15:52.131Z,99247.47
2023-03-06T08:18:56.380Z,99242.16
2023-03-06T08:22:01.674Z,99246.69
2023-03-06T08:25:06.789Z,99239.66
2023-03-06T08:28:10.636Z,99242.59
2023-03-06T08:31:22.612Z,99237.03
2023-03-06T08:34:27.335Z,99224.88
2023-03-06T08:37:32.600Z,99224.16
2023-03-06T08:40:36.442Z,99215.56
2023-03-06T08:43:40.622Z,99219.28
2023-03-06T08:46:44.501Z,99220.84
2023-03-06T08:49:48.403Z,99220.81
2023-03-06T08:52:53.663Z,99218.22
2023-03-06T08:55:57.589Z,99219.69
2023-03-06T08:59:04.266Z,99215.03
2023-03-06T09:02:08.181Z,99208.69
2023-03-06T09:05:12.469Z,99203.72
2023-03-06T09:08:18.249Z,99206.56
2023-03-06T09:11:27.331Z,99197.59
2023-03-06T09:14:32.545Z,99194.47
2023-03-06T09:18:06.815Z,99189.91
2023-03-06T09:21:11.438Z,99194.00
2023-03-06T09:24:16.894Z,99181.50
2023-03-06T09:27:20.721Z,99193.13
2023-03-06T09:30:24.633Z,99190.13
2023-03-06T09:33:28.922Z,99195.22
2023-03-06T09:36:42.788Z,99190.41
2023-03-06T09:39:54.686Z,99196.63
2023-03-06T09:42:58.551Z,99194.09
2023-03-06T09:46:02.789Z,99194.81
2023-03-06T09:49:17.152Z,99194.22
2023-03-06T09:52:38.858Z,99185.06
2023-03-06T09:55:47.604Z,99181.56
2023-03-06T09:58:55.126Z,99177.59
2023-03-06T10:02:03.254Z,99183.56
2023-03-06T10:05:12.425Z,99181.16
2023-03-06T10:08:25.505Z,99181.72
2023-03-06T10:11:38.224Z,99169.63
2023-03-06T10:14:48.465Z,99167.31
2023-03-06T10:17:53.446Z,99173.53
2023-03-06T10:21:16.928Z,99169.66
2023-03-06T10:24:43.684Z,99168.84
2023-03-06T10:27:51.051Z,99157.06
2023-03-06T10:31:04.056Z,99149.00
2023-03-06T10:34:20.979Z,99157.16
2023-03-06T10:37:25.030Z,99151.06
2023-03-06T10:40:39.928Z,99151.25
2023-03-06T10:43:46.979Z,99148.41
2023-03-06T10:46:52.873Z,99137.63
2023-03-06T10:50:06.668Z,99138.22
2023-03-06T10:53:22.712Z,99124.00
2023-03-06T10:56:32.046Z,99122.91
2023-03-06T10:59:51.957Z,99118.97
2023-03-06T11:03:07.989Z,99110.84
2023-03-06T11:06:14.588Z,99103.09
2023-03-06T11:09:23.802Z,99100.25
2023-03-06T11:12:29.904Z,99096.16
2023-03-06T11:15:35.466Z,99087.53
2023-03-06T11:18:42.388Z,99087.63
2023-03-06T11:22:01.743Z,99085.56
2023-03-06T11:25:06.992Z,99078.13
2023-03-06T11:28:20.090Z,99072.50
2023-03-06T11:31:30.326Z,99060.22
2023-03-06T11:34:41.911Z,99061.84
2023-03-06T11:37:51.532Z,99061.81
2023-03-06T11:40:57.746Z,99053.22
2023-03-06T11:44:07.664Z,99056.22
2023-03-06T11:47:44.895Z,99050.50
2023-03-06T11:50:51.267Z,99036.47
2023-03-06T11:53:56.624Z,99031.41
2023-03-06T11:57:03.754Z,99030.97
2023-03-06T12:00:22.738Z,99020.09
2023-03-06T12:03:57.502Z,99014.69
2023-03-06T12:07:11.382Z,99010.25
2023-03-06T12:10:20.582Z,99003.34
2023-03-06T12:13:50.241Z,98995.91
2023-03-06T12:17:09.596Z,98984.03
2023-03-06T12:20:31.970Z,98989.03
2023-03-06T12:23:57.988Z,98984.84
2023-03-06T12:27:15.209Z,98983.97
2023-03-06T12:30:50.062Z,98976.72
2023-03-06T12:34:07.298Z,98976.28
2023-03-06T12:37:23.270Z,98973.63
2023-03-06T12:40:47.123Z,98964.28
2023-03-06T12:44:15.876Z,98966.94
2023-03-06T12:47:23.299Z,98959.91
2023-03-06T12:50:30.347Z,98951.13
2023-03-06T12:53:51.528Z,98956.34
2023-03-06T12:56:58.264Z,98950.31
2023-03-06T13:00:02.151Z,98942.50
2023-03-06T13:03:19.189Z,98943.44
2023-03-06T13:06:56.018Z,98932.56
2023-03-06T13:10:10.338Z,98936.84
2023-03-06T13:13:33.192Z,98936.00
2023-03-06T13:16:37.032Z,98937.81
2023-03-06T13:19:40.795Z,98936.16
2023-03-06T13:22:45.863Z,98946.53
2023-03-06T13:25:52.304Z,98947.13
2023-03-06T13:28:58.430Z,98930.09
2023-03-06T13:32:18.460Z,98939.63
2023-03-06T13:35:49.979Z,98937.59
2023-03-06T13:39:02.309Z,98931.31
2023-03-06T13:42:08.607Z,98930.81
2023-03-06T13:45:18.018Z,98939.50
2023-03-06T13:48:47.832Z,98937.56
2023-03-06T13:52:07.825Z,98930.94
2023-03-06T13:55:25.729Z,98926.84
2023-03-06T13:58:46.469Z,98924.75
2023-03-06T14:02:04.352Z,98921.53
2023-03-06T14:05:13.482Z,98919.75
2023-03-06T14:08:19.904Z,98918.94
2023-03-06T14:11:23.806Z,98917.50
2023-03-06T14:14:36.108Z,98914.00
2023-03-06T14:17:40.047Z,98912.31
2023-03-06T14:20:46.668Z,98911.69
2023-03-06T14:24:00.707Z,98901.59
2023-03-06T14:27:04.876Z,98910.50
2023-03-06T14:30:17.894Z,98908.88
2023-03-06T14:33:35.217Z,98902.81
2023-03-06T14:36:46.057Z,98908.91
2023-03-06T14:39:50.679Z,98908.91
2023-03-06T14:43:13.309Z,98912.00
2023-03-06T14:46:23.711Z,98910.25
2023-03-06T14:49:28.098Z,98909.28
2023-03-06T14:52:32.191Z,98895.66
2023-03-06T14:55:37.844Z,98898.50
2023-03-06T14:58:48.014Z,98893.66
2023-03-06T15:01:58.447Z,98887.94
2023-03-06T15:05:07.214Z,98887.97
2023-03-06T15:08:11.189Z,98878.56
2023-03-06T15:11:15.292Z,98874.28
2023-03-06T15:14:20.662Z,98875.03
2023-03-06T15:17:30.117Z,98886.50
2023-03-06T15:20:48.597Z,98891.16
2023-03-06T15:23:53.295Z,98886.97
2023-03-06T15:26:59.513Z,98890.63
2023-03-06T15:30:14.986Z,98890.06
2023-03-06T15:33:27.652Z,98885.34
2023-03-06T15:36:33.140Z,98885.56
2023-03-06T15:39:39.647Z,98886.16
2023-03-06T15:42:44.335Z,98891.34
2023-03-06T15:45:48.269Z,98887.56
2023-03-06T15:49:01.071Z,98893.09
2023-03-06T15:52:05.833Z,98897.81
2023-03-06T15:55:10.706Z,98893.53
2023-03-06T15:58:18.297Z,98895.94
2023-03-06T16:01:22.543Z,98895.56
2023-03-06T16:04:28.006Z,98907.28
2023-03-06T16:07:31.915Z,98899.41
2023-03-06T16:10:39.612Z,98904.28
2023-03-06T16:13:43.496Z,98901.25
2023-03-06T16:16:47.675Z,98905.97
2023-03-06T16:19:53.284Z,98902.00
2023-03-06T16:22:57.599Z,98903.84
2023-03-06T16:26:01.530Z,98899.41
2023-03-06T16:29:05.725Z,98904.00
2023-03-06T16:32:12.826Z,98901.28
2023-03-06T16:35:18.804Z,98908.63
2023-03-06T16:38:22.747Z,98908.53
2023-03-06T16:41:26.740Z,98916.13
2023-03-06T16:44:30.626Z,98915.22
2023-03-06T16:47:34.399Z,98912.75
2023-03-06T16:50:41.860Z,98911.34
2023-03-06T16:53:46.409Z,98922.03
2023-03-06T16:56:50.383Z,98916.03
2023-03-06T16:59:54.328Z,98917.69
2023-03-06T17:02:58.192Z,98919.84
2023-03-06T17:06:03.849Z,98915.41
2023-03-06T17:09:08.080Z,98915.75
2023-03-06T17:12:12.104Z,98917.94
2023-03-06T17:15:16.071Z,98912.59
2023-03-06T17:18:20.011Z,98906.72
2023-03-06T17:21:26.948Z,98898.88
2023-03-06T17:24:31.029Z,98905.84
2023-03-06T17:27:37.802Z,98901.50
2023-03-06T17:30:41.723Z,98907.06
2023-03-06T17:33:45.703Z,98905.63
2023-03-06T17:36:51.089Z,98902.25
2023-03-06T17:39:55.298Z,98908.06
2023-03-06T17:42:59.233Z,98905.84
2023-03-06T17:46:05.242Z,98914.31
2023-03-06T17:49:10.212Z,98911.00
2023-03-06T17:52:15.585Z,98912.81
2023-03-06T17:55:19.459Z,98908.56
2023-03-06T17:58:23.342Z,98904.59
2023-03-06T18:01:28.753Z,98916.72
2023-03-06T18:04:32.676Z,98922.75
2023-03-06T18:07:37.942Z,98922.00
2023-03-06T18:10:42.585Z,98926.53
2023-03-06T18:13:47.683Z,98927.81
2023-03-06T18:16:51.700Z,98926.31
2023-03-06T18:19:57.008Z,98925.22
2023-03-06T18:23:03.916Z,98935.81
2023-03-06T18:26:10.579Z,98938.94
2023-03-06T18:29:14.586Z,98938.16
2023-03-06T18:32:18.355Z,98935.69
2023-03-06T18:35:22.689Z,98934.91
2023-03-06T18:38:27.930Z,98935.84
2023-03-06T18:41:32.667Z,98939.47
2023-03-06T18:44:36.441Z,98935.44
2023-03-06T18:47:40.736Z,98934.00
2023-03-06T18:50:44.623Z,98937.81
2023-03-06T18:53:50.130Z,98935.16
2023-03-06T18:56:53.948Z,98931.28
2023-03-06T18:59:57.808Z,98937.91
2023-03-06T19:03:01.476Z,98940.59
2023-03-06T19:06:10.700Z,98940.94
2023-03-06T19:09:15.985Z,98941.03
2023-03-06T19:12:19.828Z,98950.84
2023-03-06T19:15:23.663Z,98954.97
2023-03-06T19:18:28.904Z,98949.53
2023-03-06T19:21:33.068Z,98951.97
2023-03-06T19:24:38.324Z,98949.06
2023-03-06T19:27:45.009Z,98950.84
2023-03-06T19:30:48.693Z,98965.38
2023-03-06T19:33:54.132Z,98962.28
2023-03-06T19:36:57.921Z,98964.63
2023-03-06T19:40:04.036Z,98972.59
2023-03-06T19:43:08.061Z,98974.53
2023-03-06T19:46:14.395Z,98963.66
2023-03-06T19:49:21.921Z,98959.44
2023-03-06T19:52:25.863Z,98960.69
2023-03-06T19:55:32.082Z,98962.69
2023-03-06T19:58:36.060Z,98954.69
2023-03-06T20:01:40.708Z,98961.72
2023-03-06T20:04:44.625Z,98974.41
2023-03-06T20:07:48.493Z,98972.47
2023-03-06T20:10:53.825Z,98971.63
2023-03-06T20:13:58.592Z,98966.41
2023-03-06T20:17:02.631Z,98955.19
2023-03-06T20:20:07.449Z,98953.25
2023-03-06T20:23:11.616Z,98956.81
2023-03-06T20:26:17.981Z,98950.28
2023-03-06T20:29:21.972Z,98952.94
2023-03-06T20:32:26.059Z,98958.81
2023-03-06T20:35:30.038Z,98956.34
2023-03-06T20:38:33.783Z,98958.47
2023-03-06T20:41:39.302Z,98958.97
2023-03-06T20:44:43.072Z,98955.72
2023-03-06T20:47:47.534Z,98956.53
2023-03-06T20:51:01.382Z,98950.66
2023-03-06T20:54:05.818Z,98948.19
2023-03-06T20:57:11.106Z,98951.97
2023-03-06T21:00:15.657Z,98951.81
2023-03-06T21:03:19.419Z,98946.41
2023-03-06T21:06:23.405Z,98950.31
2023-03-06T21:09:27.342Z,98949.97
2023-03-06T21:12:32.547Z,98939.84
2023-03-06T21:15:39.240Z,98946.53
2023-03-06T21:18:43.175Z,98944.09
2023-03-06T21:21:47.036Z,98948.22
2023-03-06T21:24:50.878Z,98940.81
2023-03-06T21:27:56.470Z,98942.59
2023-03-06T21:31:02.051Z,98941.75
2023-03-06T21:34:06.495Z,98941.31
2023-03-06T21:37:10.360Z,98941.16
2023-03-06T21:40:15.495Z,98942.16
2023-03-06T21:43:20.833Z,98949.94
2023-03-06T21:46:25.179Z,98949.44
2023-03-06T21:49:29.719Z,98955.63
2023-03-06T21:52:33.494Z,98941.09
2023-03-06T21:55:40.812Z,98944.50
2023-03-06T21:58:47.402Z,98936.03
2023-03-06T22:01:51.578Z,98935.72
2023-03-06T22:04:55.590Z,98940.00
2023-03-06T22:07:59.978Z,98940.59
2023-03-06T22:11:07.713Z,98935.53
2023-03-06T22:14:15.059Z,98931.97
2023-03-06T22:17:19.094Z,98932.59
2023-03-06T22:20:23.096Z,98936.81
2023-03-06T22:23:27.182Z,98935.47
2023-03-06T22:26:31.784Z,98933.03
2023-03-06T22:29:37.456Z,98924.09
2023-03-06T22:32:41.496Z,98929.50
2023-03-06T22:35:45.302Z,98923.47
2023-03-06T22:38:50.189Z,98931.88
2023-03-06T22:41:56.633Z,98930.44
2023-03-06T22:45:01.773Z,98934.16
2023-03-06T22:48:11.028Z,98931.34
2023-03-06T22:51:17.785Z,98922.72
2023-03-06T22:54:21.720Z,98923.16
2023-03-06T22:57:25.912Z,98932.19
2023-03-06T23:00:31.499Z,98933.78
2023-03-06T23:03:36.266Z,98938.50
2023-03-06T23:06:41.479Z,98937.19
2023-03-06T23:09:45.231Z,98944.16
2023-03-06T23:13:10.444Z,98941.91
2023-03-06T23:16:34.489Z,98942.28
2023-03-06T23:19:56.693Z,98939.50
2023-03-06T23:23:19.145Z,98938.47
2023-03-06T23:26:25.091Z,98940.47
2023-03-06T23:29:29.052Z,98947.81
2023-03-06T23:32:35.087Z,98926.84
2023-03-06T23:35:40.179Z,98932.31
2023-03-06T23:38:44.572Z,98927.19
2023-03-06T23:41:48.400Z,98934.56
2023-03-06T23:44:52.518Z,98935.59
2023-03-06T23:47:58.195Z,98930.88
2023-03-06T23:51:02.231Z,98936.50
2023-03-06T23:54:07.206Z,98933.09
2023-03-06T23:57:11.253Z,98941.25
